Otho, IA (50569)

12:58 PM CDT am 29. August 2016 (GMT -0500)
Duncombe School area | | Change Station

Höhe 1109 ft 42.51 °N, 94.18 °W | Updated 18 seconds ago

Mostly Cloudy
Wolkig
84.0 °F
gefühlte 92 °F
N
0.0
Wind Wechselnd Wind aus Ost
Gusts 0.0 mph

Heute
Max. -- | schwach -- °F
--% Regenrisiko
Gestern
Max. -- | schwach -- °F
Precip. -- inch
Druck 30.24 inch
Sichtweite 10.0 Meilen
Wolken Teils Wolkig 2200 ft
Wolkig 5000 ft
Wolkig 6500 ft
Hitzeindex 92 °F
Taupunkt 75 °F
Feuchtigkeit 74%
Regen 0.00 inch
Schneehöhe Nicht verfügbar..
6:39 AM 7:54 PM
Letztes Viertel, 7% visible
METAR KFOD 291755Z AUTO 04004KT 10SM SCT022 BKN050 BKN065 27/22 A3024 RMK AO1 LTG DSNT NW 10270 20180 52003
Druck 30.24 inch
Sichtweite 10.0 Meilen
Wolken Teils Wolkig 2200 ft
Wolkig 5000 ft
Wolkig 6500 ft
Hitzeindex 92 °F
Taupunkt 75 °F
Feuchtigkeit 74%
Regen 0.00 inch
Schneehöhe Nicht verfügbar..
6:39 AM 7:54 PM
Letztes Viertel, 7% visible
METAR KFOD 291755Z AUTO 04004KT 10SM SCT022 BKN050 BKN065 27/22 A3024 RMK AO1 LTG DSNT NW 10270 20180 52003

10-Day Weather Forecast

Almanac

Astronomie

Aug. 29, 2016 Aufgang Untergang
Genaue Zeit
Bürgerliche Dämmerung
Nautische Dämmerung
Astronomische Dämmerung
Mond
Länge des sichtbaren Lichts
Tageslänge
Tomorrow will be .
, % of the Moon is Illuminated

Heutige Rekorde

State Highs State Lows

Community

WunderPhotos

Upload Photos

1,935,683 Fotos hochgeladen!

WunderBlog® & News

Nearby

Luftqualität

  Luftqualität LQ Index Schadstoff
Not available.

Schneehöhe

Station Depth Höhe

Erdbebenaktivität

Stadt Distance Mag. Time & Date
Minimum magnitude displayed is 2.5.

küstennahe Wassertemperaturen

Ort Temperatur

Stations

Wetterstationen in der Umgebung

Stationsstandort Temp. Windchill Taupunkt Feuchtigkeit Wind Precip. Höhe Aktualisiert Art
                   

Watches & Warnings

There are currently no watches in effect.